Time;durP1;ratioP1;P1;durP2;ratioP2;P2;SDS_P1;SDS_P2;PMS_P1;PMS_P2;Temp;Humidity;BMP_temperature;BMP_pressure;BME280_temperature;BME280_humidity;BME280_pressure;Samples;Min_cycle;Max_cycle;Signal;HPM_P1;HPM_P2
2021/05/24 00:02:17;;;;;;;1.53;0.73;;;;;;;10.63;100.00;100237.91;1777598;79;26680;-78
2021/05/24 00:04:47;;;;;;;1.43;0.60;;;;;;;10.44;100.00;100241.23;1777597;81;26739;-77
2021/05/24 00:07:17;;;;;;;2.57;0.63;;;;;;;10.44;100.00;100238.45;1777697;81;26627;-77
2021/05/24 00:09:47;;;;;;;0.77;0.60;;;;;;;10.44;100.00;100248.17;1777695;81;26321;-77
2021/05/24 00:12:25;;;;;;;1.53;0.50;;;;;;;10.46;100.00;100240.38;1777718;81;26240;-77
2021/05/24 00:14:48;;;;;;;1.00;0.67;;;;;;;10.43;100.00;100241.83;1776698;79;26316;-78
2021/05/24 00:17:18;;;;;;;0.80;0.50;;;;;;;10.37;100.00;100232.45;1777542;79;26341;-79
2021/05/24 00:19:49;;;;;;;2.07;0.70;;;;;;;10.38;100.00;100214.69;1777600;81;26290;-79
2021/05/24 00:22:19;;;;;;;1.87;0.60;;;;;;;10.34;100.00;100217.23;1777638;81;26188;-78
2021/05/24 00:24:49;;;;;;;1.43;0.70;;;;;;;10.41;100.00;100227.40;1777598;81;26192;-79
2021/05/24 00:27:19;;;;;;;2.43;0.50;;;;;;;10.36;100.00;100233.58;1777657;81;26210;-80
2021/05/24 00:29:49;;;;;;;1.37;0.60;;;;;;;10.33;100.00;100239.17;1777710;81;26254;-80
2021/05/24 00:32:18;;;;;;;3.93;0.93;;;;;;;10.25;100.00;100235.68;1777737;81;26254;-80
2021/05/24 00:34:48;;;;;;;2.43;0.80;;;;;;;10.24;100.00;100238.74;1777670;81;26283;-80
2021/05/24 00:37:18;;;;;;;2.83;0.60;;;;;;;10.22;100.00;100243.22;1777698;81;26188;-79
2021/05/24 00:39:49;;;;;;;2.13;0.60;;;;;;;10.19;100.00;100242.97;1777636;81;26196;-79
2021/05/24 00:42:19;;;;;;;1.60;0.73;;;;;;;10.16;100.00;100236.08;1777639;81;26674;-78
2021/05/24 00:44:49;;;;;;;2.17;1.10;;;;;;;10.15;100.00;100239.97;1777618;81;26962;-78
2021/05/24 00:47:19;;;;;;;3.17;0.70;;;;;;;10.03;100.00;100239.54;1777688;81;26846;-79
2021/05/24 00:49:49;;;;;;;1.77;0.60;;;;;;;9.98;100.00;100229.33;1777677;81;26926;-79
2021/05/24 00:52:18;;;;;;;1.27;0.60;;;;;;;9.92;100.00;100226.38;1777785;81;26675;-78
2021/05/24 00:54:48;;;;;;;0.77;0.60;;;;;;;9.78;100.00;100225.42;1777686;81;26608;-79
2021/05/24 00:57:18;;;;;;;1.80;0.40;;;;;;;9.82;100.00;100229.25;1777753;81;26248;-79
2021/05/24 00:59:49;;;;;;;1.13;0.47;;;;;;;9.93;100.00;100232.72;1777663;81;26306;-78
2021/05/24 01:02:18;;;;;;;2.50;0.43;;;;;;;9.77;100.00;100227.09;1777692;79;26263;-78
2021/05/24 01:04:48;;;;;;;2.30;0.70;;;;;;;9.70;100.00;100223.30;1777676;81;26228;-78
2021/05/24 01:07:18;;;;;;;1.87;0.80;;;;;;;9.72;100.00;100218.83;1777661;81;26303;-78
2021/05/24 01:09:49;;;;;;;1.47;0.70;;;;;;;9.74;100.00;100224.92;1777707;81;26750;-78
2021/05/24 01:12:19;;;;;;;0.73;0.50;;;;;;;9.64;100.00;100224.47;1777718;81;26619;-79
2021/05/24 01:14:49;;;;;;;0.60;0.50;;;;;;;9.67;100.00;100232.19;1777694;81;26706;-81
2021/05/24 01:17:19;;;;;;;1.47;0.50;;;;;;;9.60;100.00;100221.46;1777719;79;26319;-80
2021/05/24 01:19:49;;;;;;;3.80;0.90;;;;;;;9.54;100.00;100219.05;1777682;81;26640;-78
2021/05/24 01:22:21;;;;;;;1.33;0.60;;;;;;;9.49;100.00;100218.55;1777719;81;26292;-80
2021/05/24 01:24:51;;;;;;;1.83;0.50;;;;;;;9.49;100.00;100227.41;1777698;81;26689;-80
2021/05/24 01:27:22;;;;;;;1.57;0.60;;;;;;;9.51;100.00;100232.92;1777743;81;26187;-79
2021/05/24 01:29:52;;;;;;;0.73;0.50;;;;;;;9.53;100.00;100229.31;1777762;81;26721;-79
2021/05/24 01:32:22;;;;;;;2.70;0.60;;;;;;;9.59;100.00;100221.19;1777771;81;26188;-79
2021/05/24 01:34:52;;;;;;;2.63;0.80;;;;;;;9.43;100.00;100236.89;1777739;81;26727;-79
2021/05/24 01:37:22;;;;;;;3.13;0.70;;;;;;;9.34;100.00;100240.03;1777695;81;26745;-79
2021/05/24 01:39:52;;;;;;;1.13;0.50;;;;;;;9.43;100.00;100238.28;1777617;81;26240;-79
2021/05/24 01:42:22;;;;;;;1.83;0.60;;;;;;;9.33;100.00;100233.66;1777681;81;26243;-79
2021/05/24 01:44:52;;;;;;;2.77;0.60;;;;;;;9.24;100.00;100240.14;1777649;81;26239;-79
2021/05/24 01:47:22;;;;;;;1.77;0.70;;;;;;;9.23;100.00;100236.55;1777643;81;26637;-79
2021/05/24 01:49:52;;;;;;;1.73;0.60;;;;;;;9.24;100.00;100229.86;1777591;81;26263;-79
2021/05/24 01:52:21;;;;;;;1.87;0.90;;;;;;;9.20;100.00;100229.38;1777693;81;26318;-78
2021/05/24 01:54:51;;;;;;;2.03;0.63;;;;;;;9.20;100.00;100234.33;1777640;81;26277;-78
2021/05/24 01:57:21;;;;;;;0.87;0.70;;;;;;;9.26;100.00;100239.28;1777611;81;26191;-78
2021/05/24 01:59:51;;;;;;;2.57;0.80;;;;;;;9.12;100.00;100234.41;1777586;81;26617;-78
2021/05/24 02:02:21;;;;;;;1.83;0.87;;;;;;;9.11;100.00;100227.79;1777561;79;26721;-78
2021/05/24 02:04:51;;;;;;;1.57;1.20;;;;;;;9.12;100.00;100223.33;1777663;81;26644;-78
2021/05/24 02:07:20;;;;;;;3.23;0.83;;;;;;;9.06;100.00;100230.05;1777645;81;26184;-78
2021/05/24 02:09:50;;;;;;;3.00;0.80;;;;;;;9.21;100.00;100226.84;1777647;81;26631;-78
2021/05/24 02:12:20;;;;;;;3.33;0.90;;;;;;;9.14;100.00;100232.19;1777650;81;26643;-78
2021/05/24 02:14:52;;;;;;;0.80;0.77;;;;;;;9.04;100.00;100223.13;1777628;81;26722;-79
2021/05/24 02:17:22;;;;;;;2.90;0.90;;;;;;;9.00;100.00;100226.21;1777537;79;26329;-79
2021/05/24 02:19:53;;;;;;;1.87;0.97;;;;;;;8.94;100.00;100228.77;1777686;81;26188;-79
2021/05/24 02:22:23;;;;;;;1.60;1.00;;;;;;;8.86;100.00;100223.27;1777636;81;26585;-79
2021/05/24 02:24:53;;;;;;;1.53;1.00;;;;;;;8.75;100.00;100221.70;1777623;81;26228;-79
2021/05/24 02:27:23;;;;;;;1.57;1.13;;;;;;;8.75;100.00;100210.63;1777671;81;26231;-80
2021/05/24 02:29:52;;;;;;;3.57;1.30;;;;;;;8.65;100.00;100223.16;1777631;81;26223;-79
2021/05/24 02:32:22;;;;;;;2.70;1.03;;;;;;;8.56;100.00;100230.41;1777665;81;26727;-79
2021/05/24 02:34:52;;;;;;;3.40;1.20;;;;;;;8.64;100.00;100237.55;1777621;81;26229;-79
2021/05/24 02:37:23;;;;;;;1.30;1.00;;;;;;;8.66;100.00;100235.34;1777616;81;26225;-79
2021/05/24 02:39:53;;;;;;;2.67;1.23;;;;;;;8.44;100.00;100200.88;1777598;81;26195;-79
2021/05/24 02:42:23;;;;;;;4.03;1.03;;;;;;;8.50;100.00;100217.19;1777629;81;26389;-80
2021/05/24 02:44:53;;;;;;;3.37;1.03;;;;;;;8.45;100.00;100228.28;1777547;81;26184;-79
2021/05/24 02:47:23;;;;;;;2.63;1.20;;;;;;;8.49;100.00;100225.21;1777614;81;26714;-79
2021/05/24 02:49:53;;;;;;;5.57;1.40;;;;;;;8.59;100.00;100225.16;1777587;81;26239;-79
2021/05/24 02:52:23;;;;;;;3.87;1.50;;;;;;;8.68;100.00;100224.78;1777580;81;26184;-79
2021/05/24 02:54:53;;;;;;;3.33;1.10;;;;;;;8.60;100.00;100232.32;1777648;81;26647;-79
2021/05/24 02:57:23;;;;;;;3.97;1.30;;;;;;;8.52;100.00;100230.72;1777598;81;26238;-79
2021/05/24 02:59:53;;;;;;;4.13;1.20;;;;;;;8.61;100.00;100233.98;1777648;81;26184;-78
2021/05/24 03:02:26;;;;;;;2.40;1.10;;;;;;;8.59;100.00;100230.69;1777697;79;26219;-79
2021/05/24 03:04:56;;;;;;;2.73;1.20;;;;;;;8.60;100.00;100236.47;1777737;81;26231;-80
2021/05/24 03:07:26;;;;;;;1.87;1.10;;;;;;;8.41;100.00;100227.76;1777713;81;26236;-79
2021/05/24 03:09:56;;;;;;;2.93;1.30;;;;;;;8.43;100.00;100229.11;1777769;81;26228;-79
2021/05/24 03:12:25;;;;;;;1.87;1.07;;;;;;;8.38;100.00;100226.95;1777806;81;26745;-79
2021/05/24 03:14:55;;;;;;;5.97;1.67;;;;;;;8.32;100.00;100228.09;1777760;81;26702;-79
2021/05/24 03:17:25;;;;;;;5.83;1.47;;;;;;;8.29;100.00;100224.48;1777759;79;26822;-80
2021/05/24 03:19:55;;;;;;;3.73;1.53;;;;;;;8.23;100.00;100232.80;1777621;79;26349;-80
2021/05/24 03:22:25;;;;;;;4.00;1.23;;;;;;;8.26;100.00;100229.21;1777688;81;26238;-80
2021/05/24 03:24:55;;;;;;;3.03;1.60;;;;;;;8.30;100.00;100231.70;1777740;81;26235;-79
2021/05/24 03:27:25;;;;;;;3.60;1.70;;;;;;;8.36;100.00;100231.93;1777716;81;26266;-79
2021/05/24 03:29:54;;;;;;;2.60;1.40;;;;;;;8.39;100.00;100233.56;1777714;81;26631;-79
2021/05/24 03:32:27;;;;;;;2.90;1.30;;;;;;;8.40;100.00;100232.45;1777666;81;26604;-79
2021/05/24 03:34:57;;;;;;;3.87;1.87;;;;;;;8.36;100.00;100231.93;1777716;81;26318;-80
2021/05/24 03:37:27;;;;;;;4.33;1.40;;;;;;;8.44;100.00;100241.02;1777701;81;26821;-79
2021/05/24 03:39:57;;;;;;;4.43;1.43;;;;;;;8.22;100.00;100244.14;1777667;81;26765;-79
2021/05/24 03:42:27;;;;;;;3.13;1.67;;;;;;;8.11;100.00;100252.23;1777683;81;26231;-79
2021/05/24 03:45:16;;;;;;;3.27;1.73;;;;;;;8.12;100.00;100256.11;1712966;83;33521;-79
2021/05/24 03:47:46;;;;;;;3.73;2.13;;;;;;;7.98;100.00;100256.44;1713050;83;26813;-78
2021/05/24 03:50:17;;;;;;;5.97;2.10;;;;;;;7.90;100.00;100254.26;1712895;83;26287;-79
2021/05/24 03:52:47;;;;;;;5.57;2.67;;;;;;;8.03;100.00;100265.27;1713384;83;26934;-79
2021/05/24 03:55:18;;;;;;;7.70;2.40;;;;;;;7.97;100.00;100263.07;1713226;83;26558;-79
2021/05/24 03:57:51;;;;;;;5.00;2.40;;;;;;;7.96;100.00;100264.17;1713471;83;26393;-79
2021/05/24 04:00:21;;;;;;;4.47;2.40;;;;;;;7.89;100.00;100263.66;1706930;81;932635;-79
2021/05/24 04:02:52;;;;;;;6.00;2.30;;;;;;;7.91;100.00;100265.59;1767574;81;26270;-80
2021/05/24 04:05:26;;;;;;;5.53;2.33;;;;;;;7.85;100.00;100261.73;1767567;81;26693;-80
2021/05/24 04:07:55;;;;;;;4.83;2.13;;;;;;;7.85;100.00;100258.97;1767043;81;26246;-79
2021/05/24 04:10:29;;;;;;;3.57;2.10;;;;;;;7.77;100.00;100265.36;1767585;81;26779;-79
2021/05/24 04:12:57;;;;;;;4.73;2.40;;;;;;;7.79;100.00;100258.98;1767397;81;26301;-80
2021/05/24 04:15:27;;;;;;;3.73;2.43;;;;;;;7.79;100.00;100260.36;1769460;78;26768;-79
2021/05/24 04:18:00;;;;;;;5.37;2.40;;;;;;;7.81;100.00;100257.87;1825201;78;26237;-79
2021/05/24 04:20:30;;;;;;;14.20;3.07;;;;;;;7.84;100.00;100271.13;1815954;77;26268;-79
2021/05/24 04:23:00;;;;;;;3.97;2.40;;;;;;;7.70;100.00;100269.53;1816026;78;26169;-80
2021/05/24 04:25:30;;;;;;;4.83;2.33;;;;;;;7.84;100.00;100265.05;1816138;78;26239;-79
2021/05/24 04:28:00;;;;;;;3.70;2.20;;;;;;;7.86;100.00;100262.84;1816052;79;26647;-81
2021/05/24 04:30:29;;;;;;;4.57;2.30;;;;;;;7.88;100.00;100268.08;1816087;79;26251;-80
2021/05/24 04:32:59;;;;;;;6.00;2.40;;;;;;;7.94;100.00;100270.55;1816076;78;26169;-79
2021/05/24 04:35:29;;;;;;;6.00;2.73;;;;;;;7.97;100.00;100271.37;1816042;78;26240;-79
2021/05/24 04:38:00;;;;;;;6.17;2.73;;;;;;;8.01;100.00;100268.86;1816060;79;26173;-79
2021/05/24 04:40:30;;;;;;;8.93;3.67;;;;;;;8.18;100.00;100268.78;1815982;78;26620;-78
2021/05/24 04:43:00;;;;;;;3.43;2.73;;;;;;;8.20;100.00;100268.52;1816014;78;26219;-78
2021/05/24 04:45:30;;;;;;;10.13;3.23;;;;;;;8.27;100.00;100266.80;1815973;79;26251;-79
2021/05/24 04:47:59;;;;;;;6.90;3.00;;;;;;;8.29;100.00;100272.38;1815988;78;26247;-78
2021/05/24 04:50:30;;;;;;;8.80;3.20;;;;;;;8.41;100.00;100267.33;1816127;78;26254;-78
2021/05/24 04:53:00;;;;;;;4.73;2.70;;;;;;;8.32;100.00;100268.20;1816114;78;26166;-79
2021/05/24 04:55:30;;;;;;;9.20;3.07;;;;;;;8.37;100.00;100273.72;1816014;79;26564;-79
2021/05/24 04:58:00;;;;;;;8.33;3.27;;;;;;;8.18;100.00;100267.41;1816021;79;26641;-79
2021/05/24 05:00:31;;;;;;;5.93;3.20;;;;;;;8.25;100.00;100269.88;1816116;78;26659;-79
2021/05/24 05:03:01;;;;;;;6.07;3.13;;;;;;;8.44;100.00;100275.61;1816018;78;26326;-80
2021/05/24 05:05:33;;;;;;;6.93;3.50;;;;;;;8.52;100.00;100273.06;1816046;78;26447;-79
2021/05/24 05:08:02;;;;;;;10.03;3.70;;;;;;;8.59;100.00;100271.38;1816017;79;26173;-80
2021/05/24 05:10:32;;;;;;;6.83;3.50;;;;;;;8.62;100.00;100268.03;1816022;78;26158;-79
2021/05/24 05:13:02;;;;;;;7.17;3.40;;;;;;;8.61;100.00;100265.81;1816101;78;26169;-79
2021/05/24 05:15:33;;;;;;;8.80;3.07;;;;;;;8.69;100.00;100269.91;1816030;78;26287;-80
2021/05/24 05:18:03;;;;;;;5.63;3.10;;;;;;;8.66;100.00;100270.50;1816070;78;26181;-79
2021/05/24 05:20:33;;;;;;;6.40;2.97;;;;;;;8.91;100.00;100261.17;1815897;77;26346;-79
2021/05/24 05:23:03;;;;;;;6.70;3.17;;;;;;;8.88;100.00;100257.05;1816086;78;26656;-80
2021/05/24 05:25:33;;;;;;;9.00;3.20;;;;;;;8.91;100.00;100250.09;1816124;78;26629;-79
2021/05/24 05:28:03;;;;;;;7.67;3.63;;;;;;;8.88;100.00;100258.99;1816064;79;26593;-80
2021/05/24 05:30:33;;;;;;;10.60;4.10;;;;;;;8.93;100.00;100252.03;1816065;78;26707;-80
2021/05/24 05:33:02;;;;;;;8.13;3.20;;;;;;;9.00;100.00;100248.37;1816139;78;26232;-80
2021/05/24 05:35:32;;;;;;;12.37;4.40;;;;;;;8.85;100.00;100248.50;1816077;78;26230;-80
2021/05/24 05:38:02;;;;;;;8.07;3.70;;;;;;;8.95;100.00;100253.94;1816028;79;26601;-80
2021/05/24 05:40:33;;;;;;;9.07;4.53;;;;;;;9.20;100.00;100259.27;1816059;78;26643;-79
2021/05/24 05:43:03;;;;;;;10.03;3.37;;;;;;;9.18;100.00;100256.53;1815975;79;26218;-79
2021/05/24 05:45:33;;;;;;;11.47;3.73;;;;;;;9.26;100.00;100256.73;1816112;78;26319;-79
2021/05/24 05:48:03;;;;;;;9.47;3.30;;;;;;;9.43;100.00;100251.58;1816002;78;26241;-80
2021/05/24 05:50:33;;;;;;;10.10;3.90;;;;;;;9.42;100.00;100249.09;1815988;78;26286;-79
2021/05/24 05:53:05;;;;;;;7.43;3.43;;;;;;;9.43;100.00;100247.42;1816038;78;26345;-80
2021/05/24 05:55:37;;;;;;;9.40;3.73;;;;;;;9.57;100.00;100251.73;1815933;79;26523;-79
2021/05/24 05:58:07;;;;;;;9.80;3.63;;;;;;;9.62;100.00;100255.01;1816124;78;26234;-79
2021/05/24 06:00:37;;;;;;;9.73;3.50;;;;;;;9.64;100.00;100251.36;1816049;79;26675;-79
2021/05/24 06:03:07;;;;;;;12.00;4.53;;;;;;;9.59;100.00;100253.63;1816013;79;26648;-80
2021/05/24 06:05:37;;;;;;;14.00;3.77;;;;;;;9.77;100.00;100245.12;1816071;78;26162;-80
2021/05/24 06:08:08;;;;;;;10.27;3.60;;;;;;;9.84;100.00;100239.48;1816084;78;26683;-79
2021/05/24 06:10:37;;;;;;;10.80;3.63;;;;;;;9.90;100.00;100244.41;1816070;78;26255;-78
2021/05/24 06:13:08;;;;;;;10.50;3.73;;;;;;;9.96;100.00;100241.30;1816027;78;26173;-79
2021/05/24 06:15:38;;;;;;;10.60;3.57;;;;;;;9.91;100.00;100244.13;1816029;78;26209;-78
2021/05/24 06:18:08;;;;;;;10.50;3.47;;;;;;;9.97;100.00;100251.81;1816013;79;26220;-79
2021/05/24 06:20:38;;;;;;;7.00;3.50;;;;;;;10.05;100.00;100249.20;1815988;77;26338;-81
2021/05/24 06:23:08;;;;;;;11.63;3.83;;;;;;;10.13;100.00;100255.24;1816146;78;26169;-81
2021/05/24 06:25:38;;;;;;;9.53;3.50;;;;;;;10.13;100.00;100253.30;1816293;78;26216;-85
2021/05/24 06:28:09;;;;;;;8.20;4.00;;;;;;;10.17;100.00;100251.61;1816628;78;26200;-85
2021/05/24 06:30:40;;;;;;;9.23;3.50;;;;;;;10.25;100.00;100257.05;1816407;78;26232;-89
2021/05/24 06:33:10;;;;;;;14.93;3.87;;;;;;;10.33;100.00;100256.39;1816373;79;26169;-88
2021/05/24 06:35:40;;;;;;;10.93;3.13;;;;;;;10.41;100.00;100262.10;1816213;79;26609;-88
2021/05/24 06:38:10;;;;;;;12.17;3.60;;;;;;;10.51;100.00;100261.14;1816359;78;26177;-89
2021/05/24 06:40:40;;;;;;;16.23;3.60;;;;;;;10.56;100.00;100261.63;1816769;79;26216;-88
2021/05/24 06:43:10;;;;;;;9.53;3.70;;;;;;;10.66;100.00;100260.91;1816639;78;26262;-88
2021/05/24 06:45:40;;;;;;;12.73;4.57;;;;;;;10.74;100.00;100253.28;1816511;79;26169;-88
2021/05/24 06:48:10;;;;;;;18.00;4.97;;;;;;;10.83;100.00;100252.88;1816506;78;26185;-87
2021/05/24 06:50:40;;;;;;;14.13;3.90;;;;;;;10.68;100.00;100241.18;1816201;78;26605;-87
2021/05/24 06:53:09;;;;;;;11.53;3.43;;;;;;;10.78;100.00;100237.67;1816384;78;26172;-88
2021/05/24 06:55:40;;;;;;;11.20;3.77;;;;;;;10.90;100.00;100249.73;1816679;78;26157;-88
2021/05/24 06:58:09;;;;;;;16.80;3.90;;;;;;;11.00;100.00;100257.05;1816718;78;26239;-88
2021/05/24 07:00:39;;;;;;;19.57;4.60;;;;;;;11.05;100.00;100246.69;1816336;78;26161;-88
2021/05/24 07:03:09;;;;;;;13.30;3.80;;;;;;;11.10;100.00;100260.51;1816154;78;26196;-86
2021/05/24 07:05:39;;;;;;;15.67;3.57;;;;;;;11.10;100.00;100251.34;1816313;78;26778;-88
2021/05/24 07:08:09;;;;;;;13.73;3.73;;;;;;;11.25;100.00;100243.56;1817043;79;26220;-87
2021/05/24 07:10:39;;;;;;;10.40;3.17;;;;;;;11.21;100.00;100243.11;1816779;78;26239;-90
2021/05/24 07:13:09;;;;;;;15.83;3.53;;;;;;;11.30;100.00;100251.81;1815886;79;26691;-85
2021/05/24 07:15:39;;;;;;;14.97;3.53;;;;;;;11.27;100.00;100239.09;1815894;78;26726;-85
2021/05/24 07:18:09;;;;;;;11.07;3.30;;;;;;;11.34;100.00;100236.73;1816012;78;26904;-83
2021/05/24 07:20:39;;;;;;;14.37;3.37;;;;;;;11.50;100.00;100238.70;1815988;77;26229;-83
2021/05/24 07:23:09;;;;;;;13.00;3.17;;;;;;;11.72;100.00;100245.83;1816199;78;26168;-87
2021/05/24 07:25:39;;;;;;;15.83;3.80;;;;;;;11.84;100.00;100244.74;1815986;78;26197;-85
2021/05/24 07:28:09;;;;;;;17.20;3.67;;;;;;;11.99;100.00;100240.25;1816030;78;26648;-83
2021/05/24 07:30:39;;;;;;;10.33;2.70;;;;;;;12.14;100.00;100238.56;1815948;79;26244;-84
2021/05/24 07:33:09;;;;;;;12.60;3.30;;;;;;;12.26;100.00;100236.06;1815930;78;26212;-84
2021/05/24 07:35:39;;;;;;;14.67;3.97;;;;;;;12.25;100.00;100233.02;1815902;79;26274;-83
2021/05/24 07:38:09;;;;;;;14.53;3.23;;;;;;;12.17;100.00;100235.70;1815969;78;26212;-85
2021/05/24 07:40:39;;;;;;;11.50;3.53;;;;;;;12.17;100.00;100228.75;1815952;78;26297;-83
2021/05/24 07:43:09;;;;;;;8.97;2.80;;;;;;;12.25;100.00;100224.66;1815946;79;26731;-88
2021/05/24 07:45:39;;;;;;;12.67;3.60;;;;;;;12.33;100.00;100225.88;1816086;79;26302;-89
2021/05/24 07:48:09;;;;;;;9.80;3.03;;;;;;;12.67;100.00;100221.20;1816366;79;26275;-89
2021/05/24 07:50:39;;;;;;;13.67;3.60;;;;;;;12.56;100.00;100216.45;1816265;79;26682;-86
2021/05/24 07:53:09;;;;;;;11.27;2.93;;;;;;;12.94;100.00;100221.12;1816386;79;26625;-89
2021/05/24 07:55:39;;;;;;;7.27;2.47;;;;;;;13.02;100.00;100200.02;1816506;78;26310;-89
2021/05/24 07:58:09;;;;;;;7.40;2.63;;;;;;;13.24;100.00;100198.64;1816362;78;26236;-89
2021/05/24 08:00:39;;;;;;;6.60;2.23;;;;;;;13.22;100.00;100191.18;1816358;78;26216;-89
2021/05/24 08:03:09;;;;;;;10.73;3.00;;;;;;;13.25;100.00;100191.92;1816418;78;26239;-87
2021/05/24 08:05:39;;;;;;;11.00;2.43;;;;;;;13.54;100.00;100183.88;1816245;79;26217;-89
2021/05/24 08:08:09;;;;;;;10.50;2.70;;;;;;;13.78;100.00;100175.70;1816413;78;26205;-89
2021/05/24 08:10:39;;;;;;;11.27;3.10;;;;;;;14.03;100.00;100176.34;1817237;78;26216;-90
2021/05/24 08:13:09;;;;;;;11.37;3.17;;;;;;;13.99;100.00;100159.39;1816988;79;26652;-89
2021/05/24 08:15:38;;;;;;;8.93;2.57;;;;;;;13.88;100.00;100154.44;1816529;78;26318;-89
2021/05/24 08:18:10;;;;;;;12.83;3.27;;;;;;;13.52;100.00;100154.06;1816506;78;26220;-88
2021/05/24 08:20:39;;;;;;;6.90;2.57;;;;;;;13.28;100.00;100161.17;1816671;78;26201;-89
2021/05/24 08:23:10;;;;;;;6.37;1.83;;;;;;;13.10;100.00;100195.06;1816484;77;26362;-85
2021/05/24 08:25:39;;;;;;;9.53;2.00;;;;;;;12.29;100.00;100219.30;1816837;78;26302;-87
2021/05/24 08:28:09;;;;;;;4.00;1.17;;;;;;;11.35;100.00;100200.86;1816072;78;26244;-87
2021/05/24 08:30:40;;;;;;;3.77;1.27;;;;;;;10.92;100.00;100177.99;1816109;78;26291;-87
2021/05/24 08:33:11;;;;;;;11.80;2.57;;;;;;;10.91;100.00;100186.09;1816174;78;26606;-83
2021/05/24 08:35:41;;;;;;;5.50;1.63;;;;;;;11.62;100.00;100180.60;1816067;78;26181;-83
2021/05/24 08:38:10;;;;;;;7.83;1.90;;;;;;;12.09;100.00;100180.20;1816035;78;26617;-84
2021/05/24 08:40:41;;;;;;;6.13;1.60;;;;;;;12.42;100.00;100173.88;1816056;79;26227;-82
2021/05/24 08:43:11;;;;;;;10.27;2.50;;;;;;;12.57;100.00;100174.10;1816052;79;26298;-85
2021/05/24 08:45:42;;;;;;;8.03;2.93;;;;;;;12.55;100.00;100170.80;1816492;78;26287;-90
2021/05/24 08:48:13;;;;;;;8.87;1.80;;;;;;;12.61;100.00;100175.13;1816203;78;26824;-90
2021/05/24 08:50:43;;;;;;;7.03;1.77;;;;;;;12.73;100.00;100174.81;1816410;78;26260;-87
2021/05/24 08:53:13;;;;;;;6.30;1.80;;;;;;;12.82;100.00;100165.69;1816185;79;26686;-89
2021/05/24 08:55:43;;;;;;;5.93;1.97;;;;;;;13.00;100.00;100169.69;1816145;79;26173;-88
2021/05/24 08:58:15;;;;;;;4.70;1.60;;;;;;;12.85;100.00;100174.80;1816008;78;26690;-89
2021/05/24 09:00:45;;;;;;;5.97;1.43;;;;;;;12.82;100.00;100173.48;1816069;78;26644;-84
2021/05/24 09:03:20;;;;;;;4.37;1.60;;;;;;;12.75;100.00;100171.69;1815888;79;26717;-83
2021/05/24 09:05:51;;;;;;;8.93;2.00;;;;;;;12.78;100.00;100178.87;1816042;78;26220;-81
2021/05/24 09:08:23;;;;;;;4.77;1.60;;;;;;;12.88;100.00;100170.01;1815914;79;26737;-83
2021/05/24 09:10:53;;;;;;;5.87;1.50;;;;;;;12.70;100.00;100175.45;1814804;78;26352;-86
2021/05/24 09:13:22;;;;;;;7.83;1.70;;;;;;;12.64;100.00;100175.87;1816011;78;26227;-85
2021/05/24 09:15:52;;;;;;;5.47;1.60;;;;;;;12.53;100.00;100166.95;1816092;79;26173;-85
2021/05/24 09:18:23;;;;;;;4.00;1.20;;;;;;;12.62;100.00;100173.39;1816083;79;26691;-85
2021/05/24 09:20:55;;;;;;;4.30;1.07;;;;;;;12.65;100.00;100176.14;1816026;78;26630;-86
2021/05/24 09:23:28;;;;;;;4.60;1.13;;;;;;;12.60;100.00;100184.05;1816078;77;26656;-86
2021/05/24 09:26:02;;;;;;;3.50;1.03;;;;;;;12.58;100.00;100164.02;1816171;79;26170;-86
2021/05/24 09:28:36;;;;;;;3.27;1.10;;;;;;;12.54;100.00;100165.78;1816155;78;26394;-85
2021/05/24 09:31:10;;;;;;;5.40;1.10;;;;;;;12.67;100.00;100161.30;1816088;79;26173;-85
2021/05/24 09:33:43;;;;;;;3.87;1.23;;;;;;;13.19;100.00;100159.16;1816026;79;26711;-86
2021/05/24 09:36:13;;;;;;;7.17;1.13;;;;;;;13.51;100.00;100148.25;1816077;78;26239;-85
2021/05/24 09:38:46;;;;;;;2.13;1.10;;;;;;;13.54;100.00;100149.00;1815923;79;26596;-85
2021/05/24 09:41:17;;;;;;;3.00;0.90;;;;;;;13.24;100.00;100148.44;1815954;78;26687;-85
2021/05/24 09:43:49;;;;;;;4.83;1.30;;;;;;;13.17;100.00;100142.50;1815966;78;26233;-86
2021/05/24 09:46:22;;;;;;;5.60;1.33;;;;;;;13.15;100.00;100143.38;1815956;78;26672;-85
2021/05/24 09:48:53;;;;;;;1.97;0.77;;;;;;;13.15;100.00;100147.56;1815917;78;26258;-85
2021/05/24 09:51:26;;;;;;;3.03;1.00;;;;;;;13.36;100.00;100147.84;1815968;78;26173;-85
2021/05/24 09:54:02;;;;;;;3.03;1.00;;;;;;;13.66;100.00;100142.23;1815825;79;26235;-85
2021/05/24 09:56:34;;;;;;;6.03;1.20;;;;;;;13.61;100.00;100144.33;1815919;78;26287;-85
2021/05/24 09:59:08;;;;;;;3.57;1.00;;;;;;;13.68;100.00;100141.91;1815963;78;26173;-85
2021/05/24 10:01:42;;;;;;;3.23;0.80;;;;;;;13.81;100.00;100149.91;1815982;78;26323;-86
2021/05/24 10:04:14;;;;;;;4.87;0.83;;;;;;;13.72;100.00;100134.54;1815930;78;26306;-85
2021/05/24 10:06:45;;;;;;;3.87;0.83;;;;;;;13.66;100.00;100131.06;1816105;78;26185;-84
2021/05/24 10:09:17;;;;;;;2.13;0.77;;;;;;;13.72;100.00;100133.71;1815945;79;26720;-85
2021/05/24 10:11:50;;;;;;;2.27;0.70;;;;;;;13.78;100.00;100133.23;1815942;79;26193;-85
2021/05/24 10:14:21;;;;;;;2.23;0.80;;;;;;;13.93;100.00;100131.39;1816062;78;26236;-85
2021/05/24 10:16:56;;;;;;;4.00;1.47;;;;;;;13.64;100.00;100138.95;1815952;78;26252;-84
2021/05/24 10:19:25;;;;;;;2.33;0.77;;;;;;;13.35;100.00;100153.19;1816070;79;26691;-85
2021/05/24 10:21:55;;;;;;;2.97;1.10;;;;;;;13.08;100.00;100153.58;1816071;78;26248;-84
2021/05/24 10:24:25;;;;;;;2.80;0.80;;;;;;;12.64;100.00;100159.16;1816083;77;26730;-85
2021/05/24 10:26:57;;;;;;;2.73;1.27;;;;;;;12.56;100.00;100169.66;1816034;78;26687;-84
2021/05/24 10:29:29;;;;;;;3.50;0.77;;;;;;;12.41;100.00;100171.42;1816029;79;26176;-85
2021/05/24 10:32:00;;;;;;;2.73;0.87;;;;;;;12.54;100.00;100171.36;1815923;79;26239;-85
2021/05/24 10:34:37;;;;;;;2.80;1.00;;;;;;;12.48;100.00;100166.23;1816059;79;26290;-85
2021/05/24 10:37:08;;;;;;;2.83;1.00;;;;;;;12.60;100.00;100160.93;1816065;78;26233;-85
2021/05/24 10:39:50;;;;;;;3.47;1.13;;;;;;;12.44;100.00;100161.05;1815993;79;26652;-84
2021/05/24 10:42:21;;;;;;;3.83;1.23;;;;;;;12.40;100.00;100163.64;1815999;79;26212;-85
2021/05/24 10:44:51;;;;;;;3.43;0.80;;;;;;;12.90;100.00;100149.59;1814468;78;26169;-85
2021/05/24 10:47:23;;;;;;;4.17;1.10;;;;;;;13.03;100.00;100155.09;1815974;78;26248;-84
2021/05/24 10:50:03;;;;;;;4.53;0.77;;;;;;;13.43;100.00;100146.25;1816149;79;26221;-84
2021/05/24 10:52:35;;;;;;;2.43;0.90;;;;;;;13.61;100.00;100144.33;1816355;78;26181;-90
2021/05/24 10:55:31;;;;;;;2.70;0.80;;;;;;;13.78;100.00;100140.20;1816817;79;26608;-91
2021/05/24 10:58:03;;;;;;;3.40;0.97;;;;;;;14.13;100.00;100134.95;1816881;78;26249;-91
2021/05/24 11:00:51;;;;;;;2.80;0.90;;;;;;;15.14;100.00;100134.20;1816885;78;26695;-91
2021/05/24 11:03:22;;;;;;;1.33;0.80;;;;;;;14.44;100.00;100142.41;1816567;79;26269;-87
2021/05/24 11:06:12;;;;;;;2.93;1.00;;;;;;;13.84;100.00;100137.52;1816582;78;26609;-88
2021/05/24 11:08:44;;;;;;;3.83;1.03;;;;;;;13.77;100.00;100133.56;1816232;79;26286;-86
2021/05/24 11:11:23;;;;;;;3.13;1.10;;;;;;;13.84;100.00;100140.31;1815623;78;26605;-87
2021/05/24 11:13:55;;;;;;;5.33;1.50;;;;;;;13.58;100.00;100144.41;1815867;79;26312;-85
2021/05/24 11:16:26;;;;;;;6.10;1.07;;;;;;;13.47;100.00;100147.25;1815863;78;26177;-86
2021/05/24 11:19:08;;;;;;;3.17;0.90;;;;;;;13.06;100.00;100143.87;1816012;78;26235;-86
2021/05/24 11:21:40;;;;;;;3.93;0.87;;;;;;;12.83;100.00;100139.47;1815934;79;26239;-84
2021/05/24 11:24:35;;;;;;;3.67;1.23;;;;;;;12.86;100.00;100143.84;1816034;77;26217;-89
2021/05/24 11:27:10;;;;;;;3.10;1.27;;;;;;;12.68;100.00;100147.62;1816167;79;26294;-89
2021/05/24 11:29:43;;;;;;;4.77;1.93;;;;;;;12.82;100.00;100159.55;1816274;79;26206;-86
2021/05/24 11:32:21;;;;;;;5.00;1.20;;;;;;;12.71;100.00;100179.03;1816078;79;26247;-89
2021/05/24 11:34:52;;;;;;;5.23;1.97;;;;;;;12.15;100.00;100194.25;1816359;79;26290;-90
2021/05/24 11:37:23;;;;;;;6.67;1.73;;;;;;;11.52;100.00;100203.87;1816431;79;26229;-84